Lanagan, MO (64847)

3:55 AM CDT on September 18, 2014 (GMT -0500)
Loch Lomond | Change Station
CLOSE
Current Station
Personal Weather Station
Location: Bella Vista, AR
Elevation: 1243 ft
Nearby Weather Stations
Active Advisory: Areal Flood Advisory Active Notice: Record Report

Elev 1243 ft 36.48 °N, 94.33 °W | Updated 23 minutes ago

Overcast
Overcast
64.7 °F
Feels Like 64.7 °F
N
0.0
Wind Variable Wind from ENE
Gusts 0.0 mph

Today
High -- | Low -- °F
--% Chance of Precip.
Yesterday
High -- | Low -- °F
Precip. -- in
7:02 AM 7:20 PM
Waning Crescent, 29% visible
Pressure 29.98 in
Visibility 10.0 miles
Clouds Mostly Cloudy 3900 ft
Overcast 5500 ft
Dew Point 63 °F
Humidity 94%
Rainfall 0.00 in
Snow Depth Not available.
UV 0 out of 12
Pollen 6.20 out of 12
Air Quality Not available.
Flu Activity Not available.
METAR KGMJ 180835Z AUTO 36012G20KT 330V030 10SM VCTS BKN039 OVC055 21/18 A2998 RMK AO2 LTG DSNT NW THRU E

More Conditions Fewer Conditions

Pressure 29.98 in
Visibility 10.0 miles
Clouds Mostly Cloudy 3900 ft
Overcast 5500 ft
Dew Point 63 °F
Humidity 94%
Rainfall 0.00 in
Snow Depth Not available.
UV 0 out of 12
Pollen 6.20 out of 12
Air Quality Not available.
Flu Activity Not available.
METAR KGMJ 180835Z AUTO 36012G20KT 330V030 10SM VCTS BKN039 OVC055 21/18 A2998 RMK AO2 LTG DSNT NW THRU E

More Conditions Fewer Conditions

10-Day Weather Forecast

Almanac

Astronomy

Sep. 18, 2014 Rise Set
Actual Time 7:02 AM CDT 7:20 PM CDT
Civil Twilight 6:36 AM CDT 7:46 PM CDT
Nautical Twilight 6:06 AM CDT 8:16 PM CDT
Astronomical Twilight 5:35 AM CDT 8:47 PM CDT
Moon 2:01 AM CDT 4:06 PM CDT
Length of Visible Light 13h 09m
Length of Day
12h 18m
Tomorrow will be 2m 19s shorter.
Waning Crescent, 29% of the Moon is Illuminated
Today
Waning Crescent
Sep 24
New
Oct 1
First Quarter
Oct 8
Full
Oct 15
Last Quarter

Today's Extremes

State Highs State Lows

Community

WunderPhotos

Upload Photos

1,754,310 photos uploaded!

Nearby

Snow Depth

Station Depth Elevation
No new snow has been reported.

Earthquake Activity

City Distance Mag. Time & Date
No recent earthquake activity has been reported nearby.
Minimum magnitude displayed is 2.5.

Coastal Water Temperatures

Place Temperature
No Stations Reporting

Nearby Weather Stations